createdAt,value
2023-05-14T00:00:59.284Z,81.41
2023-05-14T00:01:59.409Z,81.31
2023-05-14T00:02:59.470Z,80.56
2023-05-14T00:03:59.382Z,80.26
2023-05-14T00:04:59.255Z,79.64
2023-05-14T00:05:59.238Z,79.20
2023-05-14T00:06:59.288Z,78.73
2023-05-14T00:07:59.214Z,79.14
2023-05-14T00:08:59.211Z,79.24
2023-05-14T00:09:59.203Z,79.14
2023-05-14T00:10:59.254Z,78.93
2023-05-14T00:11:59.222Z,79.27
2023-05-14T00:12:59.186Z,79.72
2023-05-14T00:13:59.172Z,81.04
2023-05-14T00:14:59.151Z,81.49
2023-05-14T00:15:59.182Z,80.98
2023-05-14T00:16:59.174Z,82.00
2023-05-14T00:17:59.226Z,82.35
2023-05-14T00:18:59.143Z,81.98
2023-05-14T00:19:59.136Z,82.73
2023-05-14T00:20:59.127Z,83.85
2023-05-14T00:21:59.120Z,83.65
2023-05-14T00:22:59.135Z,83.34
2023-05-14T00:23:59.106Z,83.95
2023-05-14T00:24:59.105Z,83.59
2023-05-14T00:25:59.105Z,84.88
2023-05-14T00:26:59.082Z,84.88
2023-05-14T00:27:59.150Z,84.41
2023-05-14T00:28:59.072Z,85.12
2023-05-14T00:29:59.080Z,85.12
2023-05-14T00:30:59.087Z,84.57
2023-05-14T00:31:59.049Z,83.34
2023-05-14T00:32:59.109Z,83.20
2023-05-14T00:34:00.051Z,83.00
2023-05-14T00:34:59.042Z,82.63
2023-05-14T00:35:59.048Z,83.14
2023-05-14T00:36:59.029Z,82.53
2023-05-14T00:37:59.016Z,82.63
2023-05-14T00:38:59.028Z,82.18
2023-05-14T00:39:59.008Z,82.69
2023-05-14T00:40:58.996Z,82.53
2023-05-14T00:41:58.998Z,82.53
2023-05-14T00:42:59.433Z,81.98
2023-05-14T00:43:59.007Z,81.67
2023-05-14T00:44:58.992Z,82.12
2023-05-14T00:45:58.993Z,82.83
2023-05-14T00:46:59.088Z,81.60
2023-05-14T00:47:59.011Z,82.87
2023-05-14T00:48:58.984Z,82.67
2023-05-14T00:49:58.966Z,82.42
2023-05-14T00:50:58.940Z,82.42
2023-05-14T00:51:58.961Z,82.22
2023-05-14T00:52:58.980Z,82.32
2023-05-14T00:53:58.948Z,81.95
2023-05-14T00:54:58.950Z,82.73
2023-05-14T00:55:58.925Z,82.77
2023-05-14T00:56:58.908Z,82.46
2023-05-14T00:57:58.949Z,82.67
2023-05-14T00:58:58.910Z,82.97
2023-05-14T00:59:58.886Z,83.66
2023-05-14T01:00:58.948Z,83.83
2023-05-14T01:01:58.915Z,83.83
2023-05-14T01:02:58.915Z,83.73
2023-05-14T01:03:59.027Z,83.38
2023-05-14T01:04:58.882Z,83.28
2023-05-14T01:05:58.963Z,82.32
2023-05-14T01:06:58.860Z,82.63
2023-05-14T01:07:58.878Z,82.42
2023-05-14T01:08:58.851Z,82.01
2023-05-14T01:09:58.840Z,82.22
2023-05-14T01:10:58.865Z,82.28
2023-05-14T01:11:58.852Z,82.08
2023-05-14T01:12:58.856Z,80.71
2023-05-14T01:13:58.843Z,80.47
2023-05-14T01:14:58.805Z,79.96
2023-05-14T01:15:58.846Z,79.55
2023-05-14T01:16:58.816Z,79.32
2023-05-14T01:17:58.863Z,78.70
2023-05-14T01:18:58.909Z,78.60
2023-05-14T01:19:58.814Z,79.35
2023-05-14T01:20:58.768Z,79.52
2023-05-14T01:21:58.790Z,79.45
2023-05-14T01:22:58.782Z,79.25
2023-05-14T01:23:58.773Z,79.66
2023-05-14T01:24:58.755Z,79.35
2023-05-14T01:25:58.879Z,79.66
2023-05-14T01:26:58.730Z,79.69
2023-05-14T01:27:58.737Z,79.73
2023-05-14T01:28:58.739Z,80.79
2023-05-14T01:29:58.711Z,81.51
2023-05-14T01:30:58.814Z,81.46
2023-05-14T01:31:58.753Z,81.26
2023-05-14T01:32:58.752Z,80.96
2023-05-14T01:33:58.690Z,81.16
2023-05-14T01:34:58.701Z,80.55
2023-05-14T01:35:58.845Z,80.30
2023-05-14T01:36:58.717Z,80.14
2023-05-14T01:37:58.688Z,80.24
2023-05-14T01:38:58.712Z,80.30
2023-05-14T01:39:58.734Z,79.73
2023-05-14T01:40:58.720Z,81.10
2023-05-14T01:41:58.689Z,81.34
2023-05-14T01:42:58.729Z,82.20
2023-05-14T01:43:58.697Z,82.50
2023-05-14T01:44:58.633Z,82.75
2023-05-14T01:45:58.684Z,83.76
2023-05-14T01:46:58.622Z,83.56
2023-05-14T01:47:58.734Z,83.97
2023-05-14T01:48:58.664Z,83.56
2023-05-14T01:49:58.626Z,83.32
2023-05-14T01:50:58.640Z,83.52
2023-05-14T01:51:58.638Z,82.91
2023-05-14T01:52:58.659Z,82.50
2023-05-14T01:53:58.621Z,82.81
2023-05-14T01:54:58.609Z,82.20
2023-05-14T01:55:58.616Z,82.40
2023-05-14T01:56:58.652Z,82.05
2023-05-14T01:57:58.657Z,82.05
2023-05-14T01:58:58.642Z,82.26
2023-05-14T01:59:58.580Z,82.15
2023-05-14T02:00:58.737Z,81.65
2023-05-14T02:01:58.857Z,81.44
2023-05-14T02:02:58.631Z,81.54
2023-05-14T02:03:58.673Z,81.30
2023-05-14T02:04:58.612Z,81.30
2023-05-14T02:05:58.524Z,80.89
2023-05-14T02:06:58.571Z,81.40
2023-05-14T02:07:58.538Z,80.85
2023-05-14T02:08:58.499Z,80.10
2023-05-14T02:09:58.510Z,80.24
2023-05-14T02:10:58.500Z,80.44
2023-05-14T02:11:58.496Z,80.04
2023-05-14T02:12:58.527Z,79.97
2023-05-14T02:13:58.469Z,80.28
2023-05-14T02:14:58.468Z,80.73
2023-05-14T02:15:58.594Z,81.54
2023-05-14T02:16:58.482Z,81.34
2023-05-14T02:17:58.498Z,81.13
2023-05-14T02:18:58.464Z,81.40
2023-05-14T02:19:58.440Z,81.24
2023-05-14T02:20:58.441Z,81.82
2023-05-14T02:21:58.427Z,82.43
2023-05-14T02:22:58.430Z,82.13
2023-05-14T02:23:58.430Z,82.89
2023-05-14T02:24:58.416Z,83.25
2023-05-14T02:25:58.414Z,82.95
2023-05-14T02:26:59.414Z,82.95
2023-05-14T02:27:58.385Z,82.84
2023-05-14T02:28:58.397Z,82.84
2023-05-14T02:29:58.386Z,83.25
2023-05-14T02:30:58.427Z,82.75
2023-05-14T02:31:58.429Z,82.60
2023-05-14T02:32:58.431Z,83.15
2023-05-14T02:33:58.371Z,82.50
2023-05-14T02:34:58.378Z,81.79
2023-05-14T02:35:58.353Z,81.72
2023-05-14T02:36:58.340Z,81.62
2023-05-14T02:37:58.332Z,83.05
2023-05-14T02:38:58.378Z,82.34
2023-05-14T02:39:58.323Z,83.15
2023-05-14T02:40:58.323Z,83.15
2023-05-14T02:41:58.305Z,82.64
2023-05-14T02:42:58.302Z,82.78
2023-05-14T02:43:58.318Z,82.03
2023-05-14T02:44:58.289Z,81.72
2023-05-14T02:45:58.318Z,81.82
2023-05-14T02:46:58.348Z,82.57
2023-05-14T02:47:58.342Z,83.15
2023-05-14T02:48:58.257Z,82.57
2023-05-14T02:49:58.257Z,82.98
2023-05-14T02:50:58.273Z,82.86
2023-05-14T02:51:58.245Z,83.84
2023-05-14T02:52:58.238Z,83.19
2023-05-14T02:53:58.229Z,82.78
2023-05-14T02:54:58.264Z,82.78
2023-05-14T02:55:58.234Z,82.84
2023-05-14T02:56:58.253Z,81.72
2023-05-14T02:57:58.220Z,82.03
2023-05-14T02:58:58.203Z,81.62
2023-05-14T02:59:58.197Z,81.68
2023-05-14T03:00:58.199Z,81.38
2023-05-14T03:01:58.244Z,81.58
2023-05-14T03:02:58.213Z,81.68
2023-05-14T03:03:58.176Z,81.62
2023-05-14T03:04:58.172Z,82.07
2023-05-14T03:05:58.183Z,82.37
2023-05-14T03:06:58.210Z,83.13
2023-05-14T03:07:59.240Z,83.19
2023-05-14T03:08:58.162Z,82.98
2023-05-14T03:09:58.156Z,83.03
2023-05-14T03:10:58.138Z,83.98
2023-05-14T03:11:58.145Z,84.46
2023-05-14T03:12:58.121Z,85.14
2023-05-14T03:13:58.123Z,83.91
2023-05-14T03:14:58.112Z,83.60
2023-05-14T03:15:58.114Z,83.15
2023-05-14T03:16:58.168Z,82.64
2023-05-14T03:17:58.207Z,82.54
2023-05-14T03:18:58.149Z,82.75
2023-05-14T03:19:58.084Z,82.91
2023-05-14T03:20:58.098Z,82.15
2023-05-14T03:21:58.073Z,82.46
2023-05-14T03:22:58.061Z,81.71
2023-05-14T03:23:58.085Z,81.51
2023-05-14T03:24:58.065Z,81.51
2023-05-14T03:25:58.048Z,80.48
2023-05-14T03:26:58.055Z,80.79
2023-05-14T03:27:58.037Z,80.75
2023-05-14T03:28:58.071Z,80.38
2023-05-14T03:29:58.037Z,80.69
2023-05-14T03:30:58.052Z,81.30
2023-05-14T03:31:58.009Z,80.44
2023-05-14T03:32:58.086Z,80.24
2023-05-14T03:33:58.020Z,80.79
2023-05-14T03:34:58.053Z,80.48
2023-05-14T03:35:58.006Z,80.83
2023-05-14T03:36:57.983Z,82.05
2023-05-14T03:37:57.994Z,81.65
2023-05-14T03:38:57.993Z,82.26
2023-05-14T03:39:58.006Z,82.67
2023-05-14T03:40:57.982Z,82.87
2023-05-14T03:41:57.975Z,82.67
2023-05-14T03:42:57.981Z,82.77
2023-05-14T03:43:57.950Z,82.73
2023-05-14T03:44:57.961Z,81.87
2023-05-14T03:45:57.981Z,81.94
2023-05-14T03:46:57.935Z,80.91
2023-05-14T03:47:57.976Z,81.49
2023-05-14T03:48:58.013Z,80.98
2023-05-14T03:49:57.933Z,80.43
2023-05-14T03:50:57.946Z,79.72
2023-05-14T03:51:57.907Z,79.17
2023-05-14T03:52:57.891Z,78.66
2023-05-14T03:53:57.902Z,78.36
2023-05-14T03:54:57.912Z,78.16
2023-05-14T03:55:57.892Z,78.02
2023-05-14T03:56:57.866Z,78.26
2023-05-14T03:57:57.861Z,78.16
2023-05-14T03:58:57.864Z,78.36
2023-05-14T03:59:57.861Z,78.46
2023-05-14T04:00:57.860Z,78.12
2023-05-14T04:01:57.860Z,78.32
2023-05-14T04:02:57.928Z,78.22
2023-05-14T04:03:57.921Z,77.78
2023-05-14T04:04:57.896Z,78.12
2023-05-14T04:05:57.851Z,78.08
2023-05-14T04:06:57.855Z,78.08
2023-05-14T04:07:57.846Z,77.74
2023-05-14T04:08:57.863Z,77.94
2023-05-14T04:09:57.818Z,78.59
2023-05-14T04:10:57.789Z,78.05
2023-05-14T04:11:57.829Z,78.05
2023-05-14T04:12:57.776Z,78.15
2023-05-14T04:13:57.782Z,78.05
2023-05-14T04:14:57.776Z,78.45
2023-05-14T04:15:57.798Z,78.35
2023-05-14T04:16:59.537Z,78.05
2023-05-14T04:17:57.848Z,78.01
2023-05-14T04:18:57.800Z,78.01
2023-05-14T04:19:57.751Z,77.70
2023-05-14T04:20:57.732Z,77.81
2023-05-14T04:21:57.730Z,77.81
2023-05-14T04:22:57.734Z,77.97
2023-05-14T04:23:57.754Z,77.40
2023-05-14T04:24:57.733Z,77.56
2023-05-14T04:25:57.724Z,77.06
2023-05-14T04:26:57.711Z,77.26
2023-05-14T04:27:57.687Z,76.45
2023-05-14T04:28:57.691Z,77.09
2023-05-14T04:29:57.700Z,77.50
2023-05-14T04:30:57.683Z,78.15
2023-05-14T04:31:57.727Z,78.55
2023-05-14T04:32:57.735Z,79.06
2023-05-14T04:33:57.682Z,78.76
2023-05-14T04:34:57.690Z,78.41
2023-05-14T04:35:57.657Z,78.62
2023-05-14T04:36:57.633Z,77.87
2023-05-14T04:37:57.692Z,77.77
2023-05-14T04:38:57.633Z,77.56
2023-05-14T04:39:57.654Z,77.63
2023-05-14T04:40:57.626Z,77.16
2023-05-14T04:41:57.647Z,77.47
2023-05-14T04:42:57.605Z,77.77
2023-05-14T04:43:57.589Z,77.77
2023-05-14T04:44:57.627Z,77.63
2023-05-14T04:45:57.690Z,77.16
2023-05-14T04:46:57.578Z,77.67
2023-05-14T04:47:57.621Z,77.87
2023-05-14T04:48:57.626Z,77.77
2023-05-14T04:49:57.573Z,77.56
2023-05-14T04:50:57.574Z,77.67
2023-05-14T04:51:57.552Z,77.77
2023-05-14T04:52:57.547Z,78.38
2023-05-14T04:53:57.540Z,78.08
2023-05-14T04:54:57.564Z,78.08
2023-05-14T04:55:57.533Z,78.17
2023-05-14T04:56:57.518Z,78.14
2023-05-14T04:57:57.540Z,77.63
2023-05-14T04:58:57.543Z,77.90
2023-05-14T04:59:57.524Z,77.53
2023-05-14T05:00:57.525Z,77.83
2023-05-14T05:01:57.499Z,77.83
2023-05-14T05:02:57.526Z,77.59
2023-05-14T05:03:57.532Z,77.39
2023-05-14T05:04:57.484Z,77.29
2023-05-14T05:05:57.466Z,76.85
2023-05-14T05:06:57.469Z,76.78
2023-05-14T05:07:57.439Z,76.78
2023-05-14T05:08:58.017Z,76.75
2023-05-14T05:09:57.453Z,76.14
2023-05-14T05:10:57.496Z,76.75
2023-05-14T05:11:57.434Z,76.71
2023-05-14T05:12:57.415Z,76.10
2023-05-14T05:13:57.436Z,75.52
2023-05-14T05:14:57.415Z,75.56
2023-05-14T05:15:57.453Z,77.22
2023-05-14T05:16:57.399Z,77.87
2023-05-14T05:17:57.428Z,79.02
2023-05-14T05:18:57.471Z,80.79
2023-05-14T05:19:57.460Z,81.16
2023-05-14T05:20:57.387Z,80.11
2023-05-14T05:21:57.371Z,78.95
2023-05-14T05:22:57.389Z,78.44
2023-05-14T05:23:57.340Z,78.51
2023-05-14T05:24:57.327Z,77.86
2023-05-14T05:25:57.340Z,77.25
2023-05-14T05:26:57.328Z,76.85
2023-05-14T05:27:57.344Z,76.54
2023-05-14T05:28:57.358Z,76.54
2023-05-14T05:29:57.322Z,76.03
2023-05-14T05:30:57.393Z,76.03
2023-05-14T05:31:57.323Z,75.83
2023-05-14T05:32:57.331Z,75.93
2023-05-14T05:33:57.277Z,75.49
2023-05-14T05:34:58.315Z,74.98
2023-05-14T05:35:57.281Z,74.88
2023-05-14T05:36:57.333Z,75.02
2023-05-14T05:37:58.588Z,76.03
2023-05-14T05:38:57.296Z,76.07
2023-05-14T05:39:57.249Z,76.98
2023-05-14T05:40:57.269Z,77.73
2023-05-14T05:41:57.232Z,77.94
2023-05-14T05:42:57.215Z,77.94
2023-05-14T05:43:57.222Z,77.56
2023-05-14T05:44:57.226Z,76.95
2023-05-14T05:45:57.213Z,76.00
2023-05-14T05:46:57.366Z,75.96
2023-05-14T05:47:57.247Z,74.51
2023-05-14T05:48:57.299Z,74.00
2023-05-14T05:49:57.182Z,74.41
2023-05-14T05:50:57.213Z,74.41
2023-05-14T05:51:57.178Z,74.10
2023-05-14T05:52:57.134Z,73.76
2023-05-14T05:53:57.125Z,73.36
2023-05-14T05:54:57.175Z,72.85
2023-05-14T05:55:57.115Z,73.05
2023-05-14T05:56:57.137Z,73.02
2023-05-14T05:57:57.142Z,74.48
2023-05-14T05:58:57.964Z,74.88
2023-05-14T05:59:57.134Z,74.98
2023-05-14T06:00:57.099Z,75.19
2023-05-14T06:01:57.158Z,75.29
2023-05-14T06:02:57.102Z,75.39
2023-05-14T06:03:57.084Z,76.51
2023-05-14T06:04:57.111Z,76.00
2023-05-14T06:05:58.053Z,75.56
2023-05-14T06:06:57.118Z,75.01
2023-05-14T06:07:57.048Z,74.65
2023-05-14T06:08:57.108Z,75.59
2023-05-14T06:09:58.046Z,76.17
2023-05-14T06:10:57.088Z,74.95
2023-05-14T06:11:57.026Z,75.82
2023-05-14T06:12:57.014Z,74.81
2023-05-14T06:13:57.020Z,74.71
2023-05-14T06:14:57.044Z,74.27
2023-05-14T06:15:56.998Z,74.24
2023-05-14T06:16:57.058Z,73.12
2023-05-14T06:17:57.081Z,73.22
2023-05-14T06:18:57.047Z,72.92
2023-05-14T06:19:56.992Z,72.92
2023-05-14T06:20:56.993Z,73.32
2023-05-14T06:21:56.965Z,74.33
2023-05-14T06:22:56.958Z,74.33
2023-05-14T06:23:56.986Z,74.57
2023-05-14T06:24:56.947Z,74.54
2023-05-14T06:25:56.931Z,73.49
2023-05-14T06:26:56.916Z,73.32
2023-05-14T06:27:56.905Z,73.73
2023-05-14T06:28:56.960Z,73.29
2023-05-14T06:29:56.920Z,73.05
2023-05-14T06:30:56.893Z,72.58
2023-05-14T06:31:56.979Z,72.85
2023-05-14T06:32:56.953Z,72.31
2023-05-14T06:33:56.876Z,72.11
2023-05-14T06:34:56.901Z,72.31
2023-05-14T06:35:56.988Z,72.21
2023-05-14T06:36:56.864Z,72.92
2023-05-14T06:37:56.862Z,72.31
2023-05-14T06:38:56.844Z,72.41
2023-05-14T06:39:57.887Z,71.60
2023-05-14T06:40:56.850Z,72.21
2023-05-14T06:41:56.824Z,72.21
2023-05-14T06:42:56.844Z,72.55
2023-05-14T06:43:56.831Z,72.88
2023-05-14T06:44:56.825Z,73.29
2023-05-14T06:45:56.821Z,73.90
2023-05-14T06:46:56.807Z,73.15
2023-05-14T06:47:56.864Z,72.34
2023-05-14T06:48:58.924Z,72.58
2023-05-14T06:49:56.785Z,72.99
2023-05-14T06:50:56.764Z,73.09
2023-05-14T06:51:56.813Z,73.19
2023-05-14T06:52:56.756Z,73.90
2023-05-14T06:53:56.757Z,72.88
2023-05-14T06:54:56.769Z,74.51
2023-05-14T06:55:56.729Z,73.05
2023-05-14T06:56:57.105Z,72.51
2023-05-14T06:57:56.724Z,71.23
2023-05-14T06:58:56.745Z,70.59
2023-05-14T06:59:56.731Z,70.62
2023-05-14T07:00:56.736Z,70.69
2023-05-14T07:01:56.816Z,69.42
2023-05-14T07:02:56.737Z,68.14
2023-05-14T07:03:56.776Z,67.43
2023-05-14T07:04:56.729Z,66.93
2023-05-14T07:05:56.683Z,68.01
2023-05-14T07:06:56.706Z,69.28
2023-05-14T07:07:56.717Z,70.66
2023-05-14T07:08:56.665Z,71.17
2023-05-14T07:09:56.650Z,70.89
2023-05-14T07:10:56.676Z,70.19
2023-05-14T07:11:56.659Z,71.03
2023-05-14T07:12:56.676Z,71.10
2023-05-14T07:13:56.640Z,72.34
2023-05-14T07:14:56.695Z,71.84
2023-05-14T07:15:56.654Z,70.89
2023-05-14T07:16:56.692Z,71.06
2023-05-14T07:17:56.644Z,70.53
2023-05-14T07:18:56.635Z,69.38
2023-05-14T07:19:56.627Z,68.14
2023-05-14T07:20:56.601Z,67.40
2023-05-14T07:21:56.592Z,66.77
2023-05-14T07:22:56.614Z,66.36
2023-05-14T07:23:56.573Z,66.67
2023-05-14T07:24:56.564Z,66.80
2023-05-14T07:25:56.628Z,66.70
2023-05-14T07:26:56.558Z,67.30
2023-05-14T07:27:56.549Z,67.44
2023-05-14T07:28:56.545Z,65.80
2023-05-14T07:29:56.550Z,66.50
2023-05-14T07:30:56.590Z,65.16
2023-05-14T07:31:56.537Z,65.39
2023-05-14T07:32:56.540Z,63.82
2023-05-14T07:33:56.529Z,62.46
2023-05-14T07:34:56.500Z,59.42
2023-05-14T07:35:56.504Z,61.44
2023-05-14T07:36:57.485Z,64.05
2023-05-14T07:37:56.554Z,65.99
2023-05-14T07:38:56.489Z,66.56
2023-05-14T07:39:57.442Z,66.99
2023-05-14T07:40:56.485Z,67.30
2023-05-14T07:41:56.514Z,66.93
2023-05-14T07:42:56.454Z,65.49
2023-05-14T07:43:56.444Z,63.89
2023-05-14T07:44:56.441Z,62.95
2023-05-14T07:45:56.464Z,61.41
2023-05-14T07:46:56.565Z,62.48
2023-05-14T07:47:56.603Z,63.48
2023-05-14T07:48:56.439Z,61.44
2023-05-14T07:49:56.506Z,61.76
2023-05-14T07:50:56.401Z,60.29
2023-05-14T07:51:56.386Z,58.73
2023-05-14T07:52:56.392Z,57.24
2023-05-14T07:53:56.396Z,55.94
2023-05-14T07:54:56.365Z,56.07
2023-05-14T07:55:56.371Z,55.74
2023-05-14T07:56:56.500Z,57.17
2023-05-14T07:57:56.410Z,57.07
2023-05-14T07:58:56.377Z,56.87
2023-05-14T07:59:56.359Z,57.40
2023-05-14T08:00:56.361Z,58.99
2023-05-14T08:01:56.398Z,58.59
2023-05-14T08:02:56.616Z,57.60
2023-05-14T08:03:56.429Z,59.52
2023-05-14T08:04:56.386Z,61.24
2023-05-14T08:05:56.315Z,62.78
2023-05-14T08:06:56.366Z,64.09
2023-05-14T08:07:56.343Z,63.01
2023-05-14T08:08:56.282Z,63.28
2023-05-14T08:09:56.284Z,62.82
2023-05-14T08:10:56.347Z,61.65
2023-05-14T08:11:56.292Z,61.11
2023-05-14T08:12:56.305Z,62.55
2023-05-14T08:13:56.258Z,60.96
2023-05-14T08:14:56.277Z,58.99
2023-05-14T08:15:56.322Z,58.11
2023-05-14T08:16:56.335Z,57.20
2023-05-14T08:17:56.315Z,58.66
2023-05-14T08:18:56.330Z,58.59
2023-05-14T08:19:56.255Z,59.59
2023-05-14T08:20:56.253Z,60.42
2023-05-14T08:21:56.221Z,60.72
2023-05-14T08:22:56.222Z,59.89
2023-05-14T08:23:56.246Z,58.23
2023-05-14T08:24:56.213Z,58.30
2023-05-14T08:25:56.197Z,57.63
2023-05-14T08:26:56.177Z,59.82
2023-05-14T08:27:56.351Z,62.16
2023-05-14T08:28:56.173Z,61.33
2023-05-14T08:29:56.197Z,60.49
2023-05-14T08:30:56.281Z,60.93
2023-05-14T08:31:56.156Z,61.33
2023-05-14T08:32:56.182Z,61.55
2023-05-14T08:33:56.160Z,61.13
2023-05-14T08:34:56.165Z,60.80
2023-05-14T08:35:56.191Z,60.69
2023-05-14T08:36:56.114Z,59.16
2023-05-14T08:37:56.126Z,60.06
2023-05-14T08:38:56.105Z,59.66
2023-05-14T08:39:56.088Z,59.23
2023-05-14T08:40:56.123Z,57.87
2023-05-14T08:41:56.168Z,55.92
2023-05-14T08:42:56.081Z,55.19
2023-05-14T08:43:56.082Z,55.09
2023-05-14T08:44:56.163Z,54.77
2023-05-14T08:45:56.178Z,54.41
2023-05-14T08:46:57.000Z,54.44
2023-05-14T08:47:56.179Z,55.02
2023-05-14T08:48:56.109Z,55.74
2023-05-14T08:49:56.080Z,53.36
2023-05-14T08:50:56.058Z,50.50
2023-05-14T08:51:56.066Z,47.50
2023-05-14T08:52:56.018Z,48.44
2023-05-14T08:53:56.040Z,44.96
2023-05-14T08:54:57.024Z,45.56
2023-05-14T08:55:56.035Z,46.22
2023-05-14T08:56:56.071Z,45.72
2023-05-14T08:57:56.059Z,46.92
2023-05-14T08:58:56.030Z,46.89
2023-05-14T08:59:56.003Z,47.17
2023-05-14T09:00:55.974Z,48.73
2023-05-14T09:01:56.063Z,50.90
2023-05-14T09:02:55.969Z,52.02
2023-05-14T09:03:56.018Z,51.59
2023-05-14T09:04:56.920Z,52.42
2023-05-14T09:05:56.737Z,54.14
2023-05-14T09:06:55.937Z,55.05
2023-05-14T09:07:55.917Z,53.77
2023-05-14T09:08:55.917Z,52.87
2023-05-14T09:09:55.928Z,53.07
2023-05-14T09:10:55.947Z,52.44
2023-05-14T09:11:55.903Z,53.69
2023-05-14T09:12:55.885Z,53.17
2023-05-14T09:13:55.919Z,51.79
2023-05-14T09:14:55.917Z,49.51
2023-05-14T09:15:55.958Z,49.13
2023-05-14T09:16:55.877Z,49.13
2023-05-14T09:17:55.923Z,49.40
2023-05-14T09:18:55.983Z,50.97
2023-05-14T09:19:55.854Z,51.27
2023-05-14T09:20:55.864Z,51.57
2023-05-14T09:21:56.079Z,50.57
2023-05-14T09:22:55.850Z,50.87
2023-05-14T09:23:55.824Z,51.07
2023-05-14T09:24:55.867Z,51.82
2023-05-14T09:25:55.811Z,52.07
2023-05-14T09:26:55.838Z,53.07
2023-05-14T09:27:58.519Z,52.27
2023-05-14T09:28:55.804Z,53.99
2023-05-14T09:29:55.779Z,49.53
2023-05-14T09:30:55.774Z,46.92
2023-05-14T09:31:55.832Z,48.96
2023-05-14T09:32:55.873Z,48.63
2023-05-14T09:33:55.749Z,49.25
2023-05-14T09:34:55.790Z,49.45
2023-05-14T09:35:58.177Z,48.02
2023-05-14T09:36:55.738Z,44.39
2023-05-14T09:37:55.764Z,42.35
2023-05-14T09:38:55.721Z,44.57
2023-05-14T09:39:55.731Z,47.25
2023-05-14T09:40:55.702Z,49.80
2023-05-14T09:41:55.731Z,50.52
2023-05-14T09:42:55.916Z,50.92
2023-05-14T09:43:55.707Z,50.50
2023-05-14T09:45:55.698Z,46.92
2023-05-14T09:46:55.837Z,44.67
2023-05-14T09:47:55.939Z,45.09
2023-05-14T09:48:55.677Z,45.86
2023-05-14T09:49:55.749Z,44.51
2023-05-14T09:50:55.727Z,44.07
2023-05-14T09:51:55.657Z,45.90
2023-05-14T09:52:55.649Z,47.51
2023-05-14T09:53:55.622Z,50.35
2023-05-14T09:54:55.611Z,48.38
2023-05-14T09:55:56.623Z,45.98
2023-05-14T09:56:55.958Z,44.49
2023-05-14T09:57:56.605Z,42.72
2023-05-14T09:58:55.623Z,44.71
2023-05-14T09:59:55.635Z,47.29
2023-05-14T10:00:56.643Z,46.95
2023-05-14T10:01:55.571Z,47.17
2023-05-14T10:02:55.610Z,47.11
2023-05-14T10:03:55.605Z,47.03
2023-05-14T10:04:55.577Z,46.50
2023-05-14T10:05:55.557Z,44.48
2023-05-14T10:06:55.545Z,45.39
2023-05-14T10:07:55.550Z,45.98
2023-05-14T10:08:55.574Z,43.77
2023-05-14T10:09:57.189Z,42.88
2023-05-14T10:10:55.553Z,42.71
2023-05-14T10:11:55.533Z,43.36
2023-05-14T10:12:55.586Z,42.99
2023-05-14T10:13:55.510Z,42.74
2023-05-14T10:14:55.512Z,42.36
2023-05-14T10:15:55.506Z,42.41
2023-05-14T10:16:55.573Z,42.47
2023-05-14T10:17:55.527Z,43.30
2023-05-14T10:18:57.314Z,43.90
2023-05-14T10:19:56.467Z,45.50
2023-05-14T10:20:55.483Z,47.48
2023-05-14T10:21:55.459Z,46.56
2023-05-14T10:22:55.473Z,46.91
2023-05-14T10:23:55.451Z,46.57
2023-05-14T10:24:59.841Z,46.69
2023-05-14T10:25:55.438Z,46.39
2023-05-14T10:26:55.444Z,44.54
2023-05-14T10:27:55.432Z,42.45
2023-05-14T10:28:55.403Z,43.02
2023-05-14T10:29:55.452Z,43.20
2023-05-14T10:30:55.462Z,42.19
2023-05-14T10:31:55.490Z,42.71
2023-05-14T10:32:55.488Z,42.66
2023-05-14T10:33:55.754Z,43.60
2023-05-14T10:34:55.394Z,44.93
2023-05-14T10:35:55.383Z,42.94
2023-05-14T10:36:55.372Z,41.14
2023-05-14T10:37:55.361Z,41.00
2023-05-14T10:38:55.366Z,43.08
2023-05-14T10:39:55.401Z,43.80
2023-05-14T10:40:55.373Z,44.37
2023-05-14T10:41:55.355Z,44.27
2023-05-14T10:42:55.370Z,42.80
2023-05-14T10:43:55.332Z,43.84
2023-05-14T10:44:55.342Z,42.91
2023-05-14T10:45:55.328Z,42.61
2023-05-14T10:46:55.372Z,41.41
2023-05-14T10:47:55.372Z,37.87
2023-05-14T10:48:55.380Z,38.23
2023-05-14T10:49:55.330Z,36.67
2023-05-14T10:50:55.456Z,36.06
2023-05-14T10:51:55.315Z,36.75
2023-05-14T10:52:55.287Z,37.45
2023-05-14T10:53:55.307Z,37.15
2023-05-14T10:54:55.287Z,34.44
2023-05-14T10:55:55.268Z,34.41
2023-05-14T10:56:55.253Z,33.48
2023-05-14T10:57:55.275Z,32.95
2023-05-14T10:58:55.350Z,31.45
2023-05-14T10:59:55.298Z,32.80
2023-05-14T11:00:55.268Z,34.20
2023-05-14T11:01:55.356Z,33.94
2023-05-14T11:02:55.301Z,33.77
2023-05-14T11:03:55.266Z,33.74
2023-05-14T11:04:55.254Z,35.35
2023-05-14T11:05:55.260Z,37.52
2023-05-14T11:06:55.213Z,36.48
2023-05-14T11:07:55.191Z,36.80
2023-05-14T11:08:56.113Z,37.74
2023-05-14T11:09:55.191Z,37.78
2023-05-14T11:10:55.209Z,36.78
2023-05-14T11:11:55.180Z,36.55
2023-05-14T11:12:55.188Z,38.15
2023-05-14T11:13:55.247Z,38.23
2023-05-14T11:14:55.194Z,38.61
2023-05-14T11:15:55.213Z,35.48
2023-05-14T11:16:55.264Z,34.46
2023-05-14T11:17:55.225Z,36.73
2023-05-14T11:18:55.284Z,38.86
2023-05-14T11:19:55.165Z,40.07
2023-05-14T11:20:56.418Z,38.96
2023-05-14T11:21:57.071Z,39.81
2023-05-14T11:22:56.583Z,40.44
2023-05-14T11:23:55.641Z,41.87
2023-05-14T11:24:56.834Z,40.23
2023-05-14T11:25:57.182Z,41.52
2023-05-14T11:26:55.146Z,43.16
2023-05-14T11:27:55.183Z,44.31
2023-05-14T11:28:55.072Z,44.31
2023-05-14T11:29:55.080Z,44.42
2023-05-14T11:30:55.089Z,45.47
2023-05-14T11:31:55.067Z,46.78
2023-05-14T11:32:55.084Z,46.46
2023-05-14T11:33:55.068Z,46.34
2023-05-14T11:34:55.105Z,45.24
2023-05-14T11:35:55.050Z,44.72
2023-05-14T11:36:55.058Z,46.06
2023-05-14T11:37:55.083Z,47.06
2023-05-14T11:38:55.061Z,47.06
2023-05-14T11:39:55.110Z,45.54
2023-05-14T11:40:55.030Z,46.84
2023-05-14T11:41:55.092Z,46.73
2023-05-14T11:42:55.035Z,45.20
2023-05-14T11:43:54.999Z,44.28
2023-05-14T11:44:55.037Z,44.18
2023-05-14T11:45:55.062Z,45.48
2023-05-14T11:46:54.977Z,44.66
2023-05-14T11:47:55.127Z,44.44
2023-05-14T11:48:54.973Z,42.77
2023-05-14T11:49:55.045Z,39.85
2023-05-14T11:50:54.949Z,38.31
2023-05-14T11:51:55.010Z,35.35
2023-05-14T11:52:55.078Z,33.92
2023-05-14T11:53:54.988Z,33.36
2023-05-14T11:54:55.024Z,33.12
2023-05-14T11:55:54.993Z,34.13
2023-05-14T11:56:55.560Z,36.29
2023-05-14T11:57:54.992Z,36.24
2023-05-14T11:58:54.992Z,36.19
2023-05-14T11:59:54.980Z,36.42
2023-05-14T12:00:54.913Z,35.44
2023-05-14T12:01:54.878Z,33.20
2023-05-14T12:02:54.980Z,32.76
2023-05-14T12:03:55.981Z,33.20
2023-05-14T12:04:54.980Z,32.65
2023-05-14T12:05:54.883Z,35.30
2023-05-14T12:06:54.841Z,35.33
2023-05-14T12:07:55.105Z,34.05
2023-05-14T12:08:54.882Z,32.64
2023-05-14T12:09:54.812Z,32.38
2023-05-14T12:10:54.883Z,33.13
2023-05-14T12:11:54.880Z,32.77
2023-05-14T12:12:54.800Z,32.80
2023-05-14T12:13:54.811Z,33.70
2023-05-14T12:14:54.797Z,33.84
2023-05-14T12:15:54.820Z,35.35
2023-05-14T12:16:54.803Z,34.23
2023-05-14T12:17:54.823Z,33.01
2023-05-14T12:18:54.802Z,34.53
2023-05-14T12:19:54.787Z,36.71
2023-05-14T12:20:54.830Z,38.83
2023-05-14T12:21:54.796Z,39.57
2023-05-14T12:22:54.788Z,40.06
2023-05-14T12:23:54.774Z,40.06
2023-05-14T12:24:54.779Z,38.95
2023-05-14T12:25:54.794Z,39.65
2023-05-14T12:26:54.868Z,40.05
2023-05-14T12:27:54.848Z,40.06
2023-05-14T12:28:54.777Z,39.86
2023-05-14T12:29:54.757Z,38.87
2023-05-14T12:30:54.798Z,39.17
2023-05-14T12:31:54.820Z,39.65
2023-05-14T12:32:54.841Z,38.73
2023-05-14T12:33:54.832Z,39.33
2023-05-14T12:34:54.779Z,39.81
2023-05-14T12:35:54.695Z,39.15
2023-05-14T12:36:54.694Z,40.98
2023-05-14T12:37:54.695Z,40.12
2023-05-14T12:38:54.681Z,40.58
2023-05-14T12:39:54.711Z,38.88
2023-05-14T12:40:54.664Z,38.56
2023-05-14T12:41:54.708Z,38.15
2023-05-14T12:42:56.664Z,38.21
2023-05-14T12:43:55.680Z,36.77
2023-05-14T12:44:54.673Z,35.35
2023-05-14T12:45:54.670Z,35.25
2023-05-14T12:46:54.687Z,34.25
2023-05-14T12:47:54.676Z,34.33
2023-05-14T12:48:54.682Z,36.51
2023-05-14T12:49:54.615Z,38.53
2023-05-14T12:50:54.726Z,39.31
2023-05-14T12:52:07.854Z,38.84
2023-05-14T12:52:56.599Z,39.77
2023-05-14T12:53:54.584Z,39.97